sensor_id;sensor_type;location;lat;lon;timestamp;pressure;altitude;pressure_sealevel;temperature;humidity
71621;BME280;59471;42.254;23.102;2023-02-03T00:00:05;96209.38;;;1.95;89.07
71621;BME280;59471;42.254;23.102;2023-02-03T00:02:31;96202.47;;;1.60;90.15
71621;BME280;59471;42.254;23.102;2023-02-03T00:04:56;96196.69;;;1.81;89.82
71621;BME280;59471;42.254;23.102;2023-02-03T00:07:22;96188.25;;;2.01;89.02
71621;BME280;59471;42.254;23.102;2023-02-03T00:09:48;96188.00;;;2.04;88.88
71621;BME280;59471;42.254;23.102;2023-02-03T00:12:13;96194.03;;;2.05;88.84
71621;BME280;59471;42.254;23.102;2023-02-03T00:14:39;96192.91;;;1.85;89.56
71621;BME280;59471;42.254;23.102;2023-02-03T00:17:04;96194.06;;;1.58;91.54
71621;BME280;59471;42.254;23.102;2023-02-03T00:19:30;96195.00;;;1.69;91.55
71621;BME280;59471;42.254;23.102;2023-02-03T00:21:56;96184.94;;;1.77;90.94
71621;BME280;59471;42.254;23.102;2023-02-03T00:24:21;96180.81;;;1.74;91.63
71621;BME280;59471;42.254;23.102;2023-02-03T00:26:48;96172.66;;;2.03;90.81
71621;BME280;59471;42.254;23.102;2023-02-03T00:29:13;96177.00;;;2.02;90.75
71621;BME280;59471;42.254;23.102;2023-02-03T00:31:40;96173.09;;;1.97;90.61
71621;BME280;59471;42.254;23.102;2023-02-03T00:34:05;96188.34;;;1.89;90.60
71621;BME280;59471;42.254;23.102;2023-02-03T00:36:31;96177.16;;;1.66;92.56
71621;BME280;59471;42.254;23.102;2023-02-03T00:38:56;96177.44;;;1.85;91.72
71621;BME280;59471;42.254;23.102;2023-02-03T00:41:22;96187.94;;;1.59;93.02
71621;BME280;59471;42.254;23.102;2023-02-03T00:43:48;96175.66;;;1.28;94.65
71621;BME280;59471;42.254;23.102;2023-02-03T00:46:14;96182.69;;;1.61;93.57
71621;BME280;59471;42.254;23.102;2023-02-03T00:48:40;96206.50;;;1.65;93.14
71621;BME280;59471;42.254;23.102;2023-02-03T00:51:06;96224.97;;;1.47;92.89
71621;BME280;59471;42.254;23.102;2023-02-03T00:53:31;96233.88;;;1.43;94.16
71621;BME280;59471;42.254;23.102;2023-02-03T00:55:57;96230.13;;;1.36;93.66
71621;BME280;59471;42.254;23.102;2023-02-03T00:58:23;96215.84;;;1.54;94.00
71621;BME280;59471;42.254;23.102;2023-02-03T01:00:48;96199.91;;;1.60;94.10
71621;BME280;59471;42.254;23.102;2023-02-03T01:03:15;96200.91;;;1.71;93.52
71621;BME280;59471;42.254;23.102;2023-02-03T01:05:40;96203.72;;;1.79;92.70
71621;BME280;59471;42.254;23.102;2023-02-03T01:08:06;96219.44;;;1.76;92.77
71621;BME280;59471;42.254;23.102;2023-02-03T01:10:32;96223.53;;;1.78;92.84
71621;BME280;59471;42.254;23.102;2023-02-03T01:12:57;96218.66;;;1.87;91.29
71621;BME280;59471;42.254;23.102;2023-02-03T01:15:23;96230.47;;;1.89;91.47
71621;BME280;59471;42.254;23.102;2023-02-03T01:17:48;96228.84;;;1.88;91.51
71621;BME280;59471;42.254;23.102;2023-02-03T01:20:14;96236.13;;;1.83;92.03
71621;BME280;59471;42.254;23.102;2023-02-03T01:22:41;96229.97;;;1.73;92.30
71621;BME280;59471;42.254;23.102;2023-02-03T01:25:07;96238.00;;;1.81;91.69
71621;BME280;59471;42.254;23.102;2023-02-03T01:27:32;96246.19;;;1.75;91.31
71621;BME280;59471;42.254;23.102;2023-02-03T01:29:58;96255.09;;;1.11;94.74
71621;BME280;59471;42.254;23.102;2023-02-03T01:32:24;96246.03;;;1.30;94.50
71621;BME280;59471;42.254;23.102;2023-02-03T01:34:49;96266.72;;;1.41;94.50
71621;BME280;59471;42.254;23.102;2023-02-03T01:37:15;96277.25;;;1.38;93.74
71621;BME280;59471;42.254;23.102;2023-02-03T01:39:42;96276.16;;;1.53;92.93
71621;BME280;59471;42.254;23.102;2023-02-03T01:42:12;96279.03;;;1.73;91.89
71621;BME280;59471;42.254;23.102;2023-02-03T01:44:40;96280.22;;;1.69;91.00
71621;BME280;59471;42.254;23.102;2023-02-03T01:47:28;96289.91;;;1.30;92.20
71621;BME280;59471;42.254;23.102;2023-02-03T01:50:18;96294.88;;;1.44;93.26
71621;BME280;59471;42.254;23.102;2023-02-03T01:52:52;96284.75;;;1.30;92.69
71621;BME280;59471;42.254;23.102;2023-02-03T01:55:27;96291.19;;;1.35;93.00
71621;BME280;59471;42.254;23.102;2023-02-03T01:58:05;96290.06;;;1.39;93.07
71621;BME280;59471;42.254;23.102;2023-02-03T02:00:33;96289.25;;;1.39;92.80
71621;BME280;59471;42.254;23.102;2023-02-03T02:03:01;96283.00;;;1.42;92.66
71621;BME280;59471;42.254;23.102;2023-02-03T02:05:51;96294.41;;;1.39;92.46
71621;BME280;59471;42.254;23.102;2023-02-03T02:08:21;96291.91;;;1.37;92.50
71621;BME280;59471;42.254;23.102;2023-02-03T02:10:47;96285.81;;;1.14;93.56
71621;BME280;59471;42.254;23.102;2023-02-03T02:13:14;96296.91;;;1.28;93.34
71621;BME280;59471;42.254;23.102;2023-02-03T02:16:21;96296.69;;;1.31;92.75
71621;BME280;59471;42.254;23.102;2023-02-03T02:32:20;96337.28;;;1.16;86.87
71621;BME280;59471;42.254;23.102;2023-02-03T02:35:02;96348.72;;;1.25;86.39
71621;BME280;59471;42.254;23.102;2023-02-03T02:41:01;96326.28;;;1.38;88.04
71621;BME280;59471;42.254;23.102;2023-02-03T02:46:40;96332.53;;;1.23;89.27
71621;BME280;59471;42.254;23.102;2023-02-03T02:49:23;96343.25;;;1.53;87.34
71621;BME280;59471;42.254;23.102;2023-02-03T02:51:52;96341.19;;;1.58;85.58
71621;BME280;59471;42.254;23.102;2023-02-03T02:54:22;96330.97;;;1.33;86.63
71621;BME280;59471;42.254;23.102;2023-02-03T02:56:55;96342.50;;;1.40;86.74
71621;BME280;59471;42.254;23.102;2023-02-03T02:59:23;96347.00;;;1.49;84.59
71621;BME280;59471;42.254;23.102;2023-02-03T03:01:49;96356.00;;;1.44;84.55
71621;BME280;59471;42.254;23.102;2023-02-03T03:04:17;96356.59;;;1.47;85.06
71621;BME280;59471;42.254;23.102;2023-02-03T03:06:49;96362.94;;;1.43;85.31
71621;BME280;59471;42.254;23.102;2023-02-03T03:09:21;96363.22;;;1.38;85.59
71621;BME280;59471;42.254;23.102;2023-02-03T03:11:54;96374.88;;;1.44;85.61
71621;BME280;59471;42.254;23.102;2023-02-03T03:14:24;96375.56;;;1.22;86.95
71621;BME280;59471;42.254;23.102;2023-02-03T03:16:56;96379.31;;;1.05;88.30
71621;BME280;59471;42.254;23.102;2023-02-03T03:19:30;96375.94;;;0.92;90.40
71621;BME280;59471;42.254;23.102;2023-02-03T03:22:02;96369.78;;;1.19;90.33
71621;BME280;59471;42.254;23.102;2023-02-03T03:24:46;96366.06;;;1.23;88.10
71621;BME280;59471;42.254;23.102;2023-02-03T03:27:23;96365.47;;;1.06;88.39
71621;BME280;59471;42.254;23.102;2023-02-03T03:30:00;96371.66;;;1.29;87.18
71621;BME280;59471;42.254;23.102;2023-02-03T03:32:29;96366.88;;;1.36;87.49
71621;BME280;59471;42.254;23.102;2023-02-03T03:34:57;96370.44;;;1.46;87.48
71621;BME280;59471;42.254;23.102;2023-02-03T03:37:32;96361.94;;;1.33;86.56
71621;BME280;59471;42.254;23.102;2023-02-03T03:40:07;96372.47;;;1.30;86.28
71621;BME280;59471;42.254;23.102;2023-02-03T03:48:43;96369.50;;;1.47;84.60
71621;BME280;59471;42.254;23.102;2023-02-03T03:51:18;96362.56;;;1.24;86.46
71621;BME280;59471;42.254;23.102;2023-02-03T03:53:49;96365.09;;;1.00;88.33
71621;BME280;59471;42.254;23.102;2023-02-03T03:56:24;96358.47;;;1.08;87.15
71621;BME280;59471;42.254;23.102;2023-02-03T03:58:53;96361.25;;;1.05;86.68
71621;BME280;59471;42.254;23.102;2023-02-03T04:01:20;96358.06;;;1.14;85.76
71621;BME280;59471;42.254;23.102;2023-02-03T04:03:51;96359.25;;;1.22;84.80
71621;BME280;59471;42.254;23.102;2023-02-03T04:06:20;96369.25;;;0.77;87.66
71621;BME280;59471;42.254;23.102;2023-02-03T04:08:45;96365.53;;;0.81;88.88
71621;BME280;59471;42.254;23.102;2023-02-03T04:11:11;96365.72;;;0.78;88.72
71621;BME280;59471;42.254;23.102;2023-02-03T04:13:56;96367.16;;;0.95;87.35
71621;BME280;59471;42.254;23.102;2023-02-03T04:16:22;96366.75;;;0.62;88.06
71621;BME280;59471;42.254;23.102;2023-02-03T04:18:47;96365.94;;;0.49;89.39
71621;BME280;59471;42.254;23.102;2023-02-03T04:21:13;96363.28;;;0.63;88.21
71621;BME280;59471;42.254;23.102;2023-02-03T04:23:38;96364.69;;;0.80;88.12
71621;BME280;59471;42.254;23.102;2023-02-03T04:26:04;96368.09;;;0.81;86.07
71621;BME280;59471;42.254;23.102;2023-02-03T04:28:29;96370.69;;;0.81;84.09
71621;BME280;59471;42.254;23.102;2023-02-03T04:30:59;96370.38;;;0.73;87.06
71621;BME280;59471;42.254;23.102;2023-02-03T04:33:25;96369.66;;;0.83;84.55
71621;BME280;59471;42.254;23.102;2023-02-03T04:35:51;96370.88;;;0.78;84.74
71621;BME280;59471;42.254;23.102;2023-02-03T04:38:16;96381.59;;;0.97;81.80
71621;BME280;59471;42.254;23.102;2023-02-03T04:40:42;96385.63;;;1.01;81.35
71621;BME280;59471;42.254;23.102;2023-02-03T04:43:10;96375.59;;;1.09;81.02
71621;BME280;59471;42.254;23.102;2023-02-03T04:45:36;96393.34;;;0.76;81.65
71621;BME280;59471;42.254;23.102;2023-02-03T04:48:02;96397.47;;;0.78;83.32
71621;BME280;59471;42.254;23.102;2023-02-03T04:50:31;96391.69;;;1.00;79.56
71621;BME280;59471;42.254;23.102;2023-02-03T04:52:57;96401.19;;;1.12;78.13
71621;BME280;59471;42.254;23.102;2023-02-03T04:55:25;96407.34;;;1.23;77.42
71621;BME280;59471;42.254;23.102;2023-02-03T04:57:58;96411.06;;;1.19;78.62
71621;BME280;59471;42.254;23.102;2023-02-03T05:00:27;96416.88;;;1.09;79.82
71621;BME280;59471;42.254;23.102;2023-02-03T05:02:54;96414.41;;;1.08;80.57
71621;BME280;59471;42.254;23.102;2023-02-03T05:05:19;96406.97;;;0.90;81.84
71621;BME280;59471;42.254;23.102;2023-02-03T05:07:45;96414.69;;;1.03;81.94
71621;BME280;59471;42.254;23.102;2023-02-03T05:10:11;96422.16;;;0.82;82.40
71621;BME280;59471;42.254;23.102;2023-02-03T05:12:36;96421.75;;;1.01;82.61
71621;BME280;59471;42.254;23.102;2023-02-03T05:15:02;96429.47;;;0.88;83.13
71621;BME280;59471;42.254;23.102;2023-02-03T05:17:28;96423.88;;;0.82;84.13
71621;BME280;59471;42.254;23.102;2023-02-03T05:19:53;96427.38;;;1.06;82.75
71621;BME280;59471;42.254;23.102;2023-02-03T05:22:19;96430.19;;;1.03;81.25
71621;BME280;59471;42.254;23.102;2023-02-03T05:24:44;96432.75;;;0.90;82.77
71621;BME280;59471;42.254;23.102;2023-02-03T05:27:10;96442.25;;;0.90;82.46
71621;BME280;59471;42.254;23.102;2023-02-03T05:29:36;96435.66;;;0.86;82.43
71621;BME280;59471;42.254;23.102;2023-02-03T05:32:01;96436.88;;;0.93;80.46
71621;BME280;59471;42.254;23.102;2023-02-03T05:34:27;96443.06;;;0.90;81.26
71621;BME280;59471;42.254;23.102;2023-02-03T05:36:52;96445.16;;;0.85;81.44
71621;BME280;59471;42.254;23.102;2023-02-03T05:39:18;96435.94;;;0.68;82.20
71621;BME280;59471;42.254;23.102;2023-02-03T05:41:43;96444.50;;;0.82;82.00
71621;BME280;59471;42.254;23.102;2023-02-03T05:44:22;96446.69;;;1.01;81.41
71621;BME280;59471;42.254;23.102;2023-02-03T05:46:52;96445.84;;;1.00;80.69
71621;BME280;59471;42.254;23.102;2023-02-03T05:49:19;96446.88;;;0.85;82.31
71621;BME280;59471;42.254;23.102;2023-02-03T05:51:45;96451.00;;;1.00;81.08
71621;BME280;59471;42.254;23.102;2023-02-03T05:54:11;96447.31;;;0.91;82.42
71621;BME280;59471;42.254;23.102;2023-02-03T05:56:37;96446.69;;;1.01;81.83
71621;BME280;59471;42.254;23.102;2023-02-03T05:59:03;96452.16;;;0.71;82.35
71621;BME280;59471;42.254;23.102;2023-02-03T06:01:30;96456.69;;;0.80;82.92
71621;BME280;59471;42.254;23.102;2023-02-03T06:03:56;96455.22;;;0.76;83.20
71621;BME280;59471;42.254;23.102;2023-02-03T06:06:22;96457.50;;;0.80;82.85
71621;BME280;59471;42.254;23.102;2023-02-03T06:08:47;96460.31;;;0.90;82.34
71621;BME280;59471;42.254;23.102;2023-02-03T06:11:15;96472.19;;;1.05;82.03
71621;BME280;59471;42.254;23.102;2023-02-03T06:13:40;96466.09;;;0.93;81.68
71621;BME280;59471;42.254;23.102;2023-02-03T06:16:06;96469.38;;;0.83;81.78
71621;BME280;59471;42.254;23.102;2023-02-03T06:18:32;96480.59;;;0.82;81.88
71621;BME280;59471;42.254;23.102;2023-02-03T06:20:57;96476.88;;;0.60;83.39
71621;BME280;59471;42.254;23.102;2023-02-03T06:23:23;96480.31;;;0.74;82.79
71621;BME280;59471;42.254;23.102;2023-02-03T06:25:49;96485.88;;;0.67;82.78
71621;BME280;59471;42.254;23.102;2023-02-03T06:28:16;96489.28;;;0.81;80.87
71621;BME280;59471;42.254;23.102;2023-02-03T06:30:42;96488.63;;;0.64;80.39
71621;BME280;59471;42.254;23.102;2023-02-03T06:33:07;96490.69;;;0.72;80.73
71621;BME280;59471;42.254;23.102;2023-02-03T06:35:33;96486.41;;;0.73;80.78
71621;BME280;59471;42.254;23.102;2023-02-03T06:37:59;96496.47;;;0.76;80.22
71621;BME280;59471;42.254;23.102;2023-02-03T06:40:25;96506.47;;;0.67;80.83
71621;BME280;59471;42.254;23.102;2023-02-03T06:42:51;96509.69;;;0.71;80.94
71621;BME280;59471;42.254;23.102;2023-02-03T06:45:17;96512.28;;;0.84;80.04
71621;BME280;59471;42.254;23.102;2023-02-03T06:47:44;96513.84;;;0.86;79.05
71621;BME280;59471;42.254;23.102;2023-02-03T06:50:12;96510.94;;;0.91;79.64
71621;BME280;59471;42.254;23.102;2023-02-03T06:52:39;96505.78;;;1.04;78.97
71621;BME280;59471;42.254;23.102;2023-02-03T06:55:05;96512.31;;;1.09;78.22
71621;BME280;59471;42.254;23.102;2023-02-03T06:57:32;96513.44;;;1.05;78.59
71621;BME280;59471;42.254;23.102;2023-02-03T06:59:57;96523.34;;;1.11;79.33
71621;BME280;59471;42.254;23.102;2023-02-03T07:02:23;96510.34;;;1.26;77.68
71621;BME280;59471;42.254;23.102;2023-02-03T07:04:49;96509.22;;;1.30;76.86
71621;BME280;59471;42.254;23.102;2023-02-03T07:07:14;96512.84;;;1.27;77.26
71621;BME280;59471;42.254;23.102;2023-02-03T07:09:40;96507.16;;;1.35;76.46
71621;BME280;59471;42.254;23.102;2023-02-03T07:12:07;96523.78;;;1.31;78.18
71621;BME280;59471;42.254;23.102;2023-02-03T07:14:33;96521.72;;;1.36;77.17
71621;BME280;59471;42.254;23.102;2023-02-03T07:17:04;96517.44;;;1.60;75.41
71621;BME280;59471;42.254;23.102;2023-02-03T07:19:30;96516.63;;;1.60;74.57
71621;BME280;59471;42.254;23.102;2023-02-03T07:21:56;96516.13;;;1.42;75.82
71621;BME280;59471;42.254;23.102;2023-02-03T07:24:21;96515.94;;;1.45;77.49
71621;BME280;59471;42.254;23.102;2023-02-03T07:26:47;96518.19;;;1.50;75.40
71621;BME280;59471;42.254;23.102;2023-02-03T07:29:12;96530.78;;;1.67;75.85
71621;BME280;59471;42.254;23.102;2023-02-03T07:31:38;96536.59;;;1.45;76.02
71621;BME280;59471;42.254;23.102;2023-02-03T07:34:04;96529.13;;;1.53;75.39
71621;BME280;59471;42.254;23.102;2023-02-03T07:36:31;96533.75;;;1.74;75.34
71621;BME280;59471;42.254;23.102;2023-02-03T07:38:57;96526.31;;;1.69;75.21
71621;BME280;59471;42.254;23.102;2023-02-03T07:41:22;96525.81;;;1.77;74.22
71621;BME280;59471;42.254;23.102;2023-02-03T07:43:48;96527.66;;;1.75;73.66
71621;BME280;59471;42.254;23.102;2023-02-03T07:46:13;96533.13;;;1.83;73.46
71621;BME280;59471;42.254;23.102;2023-02-03T07:48:39;96544.75;;;1.89;74.63
71621;BME280;59471;42.254;23.102;2023-02-03T07:51:05;96535.69;;;1.96;74.38
71621;BME280;59471;42.254;23.102;2023-02-03T07:53:31;96531.47;;;1.82;74.32
71621;BME280;59471;42.254;23.102;2023-02-03T07:56:03;96545.38;;;1.92;73.51
71621;BME280;59471;42.254;23.102;2023-02-03T07:58:30;96543.25;;;1.86;73.51
71621;BME280;59471;42.254;23.102;2023-02-03T08:00:56;96542.56;;;1.95;72.49
71621;BME280;59471;42.254;23.102;2023-02-03T08:03:22;96547.47;;;1.87;74.64
71621;BME280;59471;42.254;23.102;2023-02-03T08:05:49;96540.00;;;1.95;73.80
71621;BME280;59471;42.254;23.102;2023-02-03T08:08:15;96547.53;;;1.98;73.89
71621;BME280;59471;42.254;23.102;2023-02-03T08:10:40;96547.69;;;1.84;74.67
71621;BME280;59471;42.254;23.102;2023-02-03T08:13:06;96557.81;;;1.87;74.48
71621;BME280;59471;42.254;23.102;2023-02-03T08:15:31;96553.84;;;1.94;73.08
71621;BME280;59471;42.254;23.102;2023-02-03T08:17:57;96557.00;;;1.74;74.08
71621;BME280;59471;42.254;23.102;2023-02-03T08:20:22;96558.41;;;1.91;73.24
71621;BME280;59471;42.254;23.102;2023-02-03T08:22:48;96559.03;;;1.94;72.29
71621;BME280;59471;42.254;23.102;2023-02-03T08:25:13;96566.47;;;1.99;68.65
71621;BME280;59471;42.254;23.102;2023-02-03T08:27:39;96566.66;;;2.08;70.19
71621;BME280;59471;42.254;23.102;2023-02-03T08:30:06;96569.41;;;2.18;70.60
71621;BME280;59471;42.254;23.102;2023-02-03T08:32:36;96573.41;;;2.22;71.21
71621;BME280;59471;42.254;23.102;2023-02-03T08:35:02;96563.91;;;2.23;69.50
71621;BME280;59471;42.254;23.102;2023-02-03T08:37:28;96580.84;;;2.27;69.85
71621;BME280;59471;42.254;23.102;2023-02-03T08:39:56;96566.56;;;2.34;69.37
71621;BME280;59471;42.254;23.102;2023-02-03T08:42:22;96574.38;;;2.21;71.97
71621;BME280;59471;42.254;23.102;2023-02-03T08:44:48;96573.81;;;2.29;71.57
71621;BME280;59471;42.254;23.102;2023-02-03T08:47:14;96577.13;;;2.31;71.47
71621;BME280;59471;42.254;23.102;2023-02-03T08:49:39;96580.63;;;2.43;70.39
71621;BME280;59471;42.254;23.102;2023-02-03T08:52:09;96580.66;;;2.78;67.68
71621;BME280;59471;42.254;23.102;2023-02-03T08:54:35;96576.25;;;2.91;68.36
71621;BME280;59471;42.254;23.102;2023-02-03T08:57:01;96579.06;;;2.99;67.17
71621;BME280;59471;42.254;23.102;2023-02-03T08:59:27;96577.63;;;2.84;66.79
71621;BME280;59471;42.254;23.102;2023-02-03T09:01:54;96579.34;;;2.96;65.77
71621;BME280;59471;42.254;23.102;2023-02-03T09:04:20;96588.44;;;3.24;67.33
71621;BME280;59471;42.254;23.102;2023-02-03T09:06:53;96583.44;;;3.34;65.03
71621;BME280;59471;42.254;23.102;2023-02-03T09:09:19;96582.28;;;3.49;68.88
71621;BME280;59471;42.254;23.102;2023-02-03T09:11:45;96575.69;;;3.45;65.93
71621;BME280;59471;42.254;23.102;2023-02-03T09:14:11;96583.03;;;3.63;65.77
71621;BME280;59471;42.254;23.102;2023-02-03T09:16:37;96585.13;;;3.58;62.38
71621;BME280;59471;42.254;23.102;2023-02-03T09:19:03;96589.13;;;3.51;63.60
71621;BME280;59471;42.254;23.102;2023-02-03T09:21:29;96593.47;;;3.50;65.05
71621;BME280;59471;42.254;23.102;2023-02-03T09:23:54;96579.00;;;3.47;65.72
71621;BME280;59471;42.254;23.102;2023-02-03T09:26:20;96580.63;;;3.48;64.95
71621;BME280;59471;42.254;23.102;2023-02-03T09:28:45;96577.38;;;3.69;64.14
71621;BME280;59471;42.254;23.102;2023-02-03T09:31:14;96578.28;;;3.57;63.73
71621;BME280;59471;42.254;23.102;2023-02-03T09:33:42;96586.28;;;3.65;60.65
71621;BME280;59471;42.254;23.102;2023-02-03T09:36:09;96597.16;;;3.70;64.36
71621;BME280;59471;42.254;23.102;2023-02-03T09:38:35;96601.97;;;3.75;62.01
71621;BME280;59471;42.254;23.102;2023-02-03T09:43:52;96598.09;;;4.03;64.30
71621;BME280;59471;42.254;23.102;2023-02-03T09:46:31;96597.28;;;3.91;61.31
71621;BME280;59471;42.254;23.102;2023-02-03T09:49:07;96586.56;;;3.95;62.58
71621;BME280;59471;42.254;23.102;2023-02-03T09:51:44;96591.75;;;3.95;63.45
71621;BME280;59471;42.254;23.102;2023-02-03T09:57:17;96585.13;;;4.03;60.22
71621;BME280;59471;42.254;23.102;2023-02-03T09:59:46;96583.25;;;4.05;61.59
71621;BME280;59471;42.254;23.102;2023-02-03T10:05:00;96579.97;;;3.91;60.48
71621;BME280;59471;42.254;23.102;2023-02-03T10:10:45;96576.66;;;3.89;60.26
71621;BME280;59471;42.254;23.102;2023-02-03T10:19:01;96562.50;;;4.27;58.59
71621;BME280;59471;42.254;23.102;2023-02-03T10:24:03;96553.78;;;4.06;60.44
71621;BME280;59471;42.254;23.102;2023-02-03T10:26:33;96560.13;;;4.24;61.34
71621;BME280;59471;42.254;23.102;2023-02-03T10:29:11;96553.69;;;4.51;58.74
71621;BME280;59471;42.254;23.102;2023-02-03T10:31:42;96556.84;;;4.65;59.72
71621;BME280;59471;42.254;23.102;2023-02-03T10:34:12;96551.31;;;4.59;58.04
71621;BME280;59471;42.254;23.102;2023-02-03T10:41:52;96526.19;;;5.13;59.96
71621;BME280;59471;42.254;23.102;2023-02-03T10:44:18;96530.38;;;5.25;56.70
71621;BME280;59471;42.254;23.102;2023-02-03T10:46:44;96533.38;;;5.20;57.53
71621;BME280;59471;42.254;23.102;2023-02-03T10:49:11;96531.47;;;5.22;58.34
71621;BME280;59471;42.254;23.102;2023-02-03T10:51:43;96521.91;;;5.02;56.82
71621;BME280;59471;42.254;23.102;2023-02-03T10:56:57;96532.34;;;4.91;57.10
71621;BME280;59471;42.254;23.102;2023-02-03T10:59:30;96521.13;;;4.90;57.85
71621;BME280;59471;42.254;23.102;2023-02-03T11:01:58;96527.16;;;4.91;55.54
71621;BME280;59471;42.254;23.102;2023-02-03T11:04:32;96533.97;;;4.71;56.10
71621;BME280;59471;42.254;23.102;2023-02-03T11:07:00;96525.47;;;4.69;56.24
71621;BME280;59471;42.254;23.102;2023-02-03T11:09:37;96533.25;;;4.25;56.33
71621;BME280;59471;42.254;23.102;2023-02-03T11:12:13;96540.09;;;4.26;54.93
71621;BME280;59471;42.254;23.102;2023-02-03T11:14:43;96529.50;;;4.18;55.90
71621;BME280;59471;42.254;23.102;2023-02-03T11:17:16;96525.28;;;4.17;56.37
71621;BME280;59471;42.254;23.102;2023-02-03T11:19:58;96516.59;;;3.95;55.67
71621;BME280;59471;42.254;23.102;2023-02-03T11:22:39;96524.78;;;4.23;56.88
71621;BME280;59471;42.254;23.102;2023-02-03T11:25:18;96529.69;;;4.49;57.16
71621;BME280;59471;42.254;23.102;2023-02-03T11:27:46;96533.50;;;4.22;54.07
71621;BME280;59471;42.254;23.102;2023-02-03T11:30:26;96521.00;;;4.38;54.73
71621;BME280;59471;42.254;23.102;2023-02-03T11:32:56;96503.56;;;4.29;56.80
71621;BME280;59471;42.254;23.102;2023-02-03T11:35:26;96501.56;;;4.54;56.68
71621;BME280;59471;42.254;23.102;2023-02-03T11:37:59;96494.50;;;4.56;55.85
71621;BME280;59471;42.254;23.102;2023-02-03T11:45:29;96477.81;;;4.37;54.39
71621;BME280;59471;42.254;23.102;2023-02-03T11:48:15;96475.81;;;4.73;52.46
71621;BME280;59471;42.254;23.102;2023-02-03T11:53:53;96475.75;;;5.05;52.34
71621;BME280;59471;42.254;23.102;2023-02-03T12:02:29;96468.38;;;5.31;53.56
71621;BME280;59471;42.254;23.102;2023-02-03T12:14:20;96461.56;;;5.09;51.64
71621;BME280;59471;42.254;23.102;2023-02-03T12:17:26;96450.91;;;4.92;48.81
71621;BME280;59471;42.254;23.102;2023-02-03T12:20:12;96439.41;;;4.63;47.45
71621;BME280;59471;42.254;23.102;2023-02-03T12:31:10;96457.69;;;5.04;45.32
71621;BME280;59471;42.254;23.102;2023-02-03T12:33:54;96447.34;;;5.14;45.73
71621;BME280;59471;42.254;23.102;2023-02-03T12:36:51;96454.13;;;5.56;46.87
71621;BME280;59471;42.254;23.102;2023-02-03T12:42:12;96446.25;;;5.37;42.91
71621;BME280;59471;42.254;23.102;2023-02-03T12:45:30;96436.97;;;5.14;45.09
71621;BME280;59471;42.254;23.102;2023-02-03T12:47:47;96438.88;;;5.11;46.64
71621;BME280;59471;42.254;23.102;2023-02-03T12:50:37;96433.47;;;5.24;46.74
71621;BME280;59471;42.254;23.102;2023-02-03T12:55:52;96437.84;;;5.64;45.92
71621;BME280;59471;42.254;23.102;2023-02-03T12:58:44;96433.38;;;5.66;47.52
71621;BME280;59471;42.254;23.102;2023-02-03T13:01:19;96430.69;;;5.77;46.58
71621;BME280;59471;42.254;23.102;2023-02-03T13:03:59;96428.44;;;5.63;44.52
71621;BME280;59471;42.254;23.102;2023-02-03T13:07:07;96426.09;;;5.29;45.97
71621;BME280;59471;42.254;23.102;2023-02-03T13:10:15;96429.72;;;5.38;47.78
71621;BME280;59471;42.254;23.102;2023-02-03T13:12:45;96420.56;;;5.44;46.80
71621;BME280;59471;42.254;23.102;2023-02-03T13:17:49;96412.63;;;4.63;46.13
71621;BME280;59471;42.254;23.102;2023-02-03T13:20:22;96411.69;;;4.85;47.71
71621;BME280;59471;42.254;23.102;2023-02-03T13:22:50;96416.91;;;4.95;47.66
71621;BME280;59471;42.254;23.102;2023-02-03T13:25:34;96415.34;;;5.03;49.77
71621;BME280;59471;42.254;23.102;2023-02-03T13:41:07;96422.94;;;4.53;50.25
71621;BME280;59471;42.254;23.102;2023-02-03T13:43:43;96423.59;;;4.67;47.53
71621;BME280;59471;42.254;23.102;2023-02-03T13:46:28;96420.00;;;4.58;49.49
71621;BME280;59471;42.254;23.102;2023-02-03T13:48:58;96422.91;;;4.64;49.28
71621;BME280;59471;42.254;23.102;2023-02-03T13:51:29;96421.25;;;4.63;49.62
71621;BME280;59471;42.254;23.102;2023-02-03T13:54:15;96428.44;;;4.60;49.80
71621;BME280;59471;42.254;23.102;2023-02-03T13:56:57;96419.28;;;4.56;51.10
71621;BME280;59471;42.254;23.102;2023-02-03T13:59:41;96434.63;;;4.80;48.85
71621;BME280;59471;42.254;23.102;2023-02-03T14:07:34;96430.53;;;4.66;48.94
71621;BME280;59471;42.254;23.102;2023-02-03T14:12:37;96424.16;;;4.91;49.98
71621;BME280;59471;42.254;23.102;2023-02-03T14:22:50;96413.59;;;5.14;47.04
71621;BME280;59471;42.254;23.102;2023-02-03T14:25:18;96420.91;;;5.29;49.02
71621;BME280;59471;42.254;23.102;2023-02-03T14:27:45;96412.50;;;5.37;48.71
71621;BME280;59471;42.254;23.102;2023-02-03T14:30:14;96422.00;;;5.67;46.49
71621;BME280;59471;42.254;23.102;2023-02-03T14:33:01;96423.34;;;5.21;45.08
71621;BME280;59471;42.254;23.102;2023-02-03T14:35:32;96421.03;;;5.18;47.66
71621;BME280;59471;42.254;23.102;2023-02-03T14:38:03;96425.25;;;5.19;44.22
71621;BME280;59471;42.254;23.102;2023-02-03T14:40:53;96425.75;;;5.13;46.05
71621;BME280;59471;42.254;23.102;2023-02-03T14:46:20;96426.78;;;5.01;45.68
71621;BME280;59471;42.254;23.102;2023-02-03T14:52:01;96437.19;;;4.59;46.23
71621;BME280;59471;42.254;23.102;2023-02-03T14:55:07;96422.22;;;4.30;47.52
71621;BME280;59471;42.254;23.102;2023-02-03T14:57:52;96424.03;;;4.18;49.13
71621;BME280;59471;42.254;23.102;2023-02-03T15:05:42;96422.81;;;4.02;47.69
71621;BME280;59471;42.254;23.102;2023-02-03T15:11:23;96412.47;;;3.90;46.87
71621;BME280;59471;42.254;23.102;2023-02-03T15:13:54;96410.25;;;3.75;47.67
71621;BME280;59471;42.254;23.102;2023-02-03T15:16:23;96409.09;;;3.67;48.64
71621;BME280;59471;42.254;23.102;2023-02-03T15:18:57;96407.56;;;3.76;48.71
71621;BME280;59471;42.254;23.102;2023-02-03T15:21:24;96408.38;;;3.77;49.31
71621;BME280;59471;42.254;23.102;2023-02-03T15:23:51;96401.91;;;3.82;48.87
71621;BME280;59471;42.254;23.102;2023-02-03T15:26:20;96409.72;;;3.48;49.54
71621;BME280;59471;42.254;23.102;2023-02-03T15:29:02;96405.25;;;3.39;49.68
71621;BME280;59471;42.254;23.102;2023-02-03T15:34:37;96412.06;;;3.63;51.34